sensor_id;sensor_type;location;lat;lon;timestamp;temperature;humidity
8313;DHT22;4194;43.408;24.626;2023-05-20T00:01:12;11.30;99.90
8313;DHT22;4194;43.408;24.626;2023-05-20T00:03:38;12.10;99.90
8313;DHT22;4194;43.408;24.626;2023-05-20T00:08:30;12.00;99.90
8313;DHT22;4194;43.408;24.626;2023-05-20T00:10:55;12.40;99.90
8313;DHT22;4194;43.408;24.626;2023-05-20T00:13:21;12.50;99.90
8313;DHT22;4194;43.408;24.626;2023-05-20T00:15:48;12.40;99.90
8313;DHT22;4194;43.408;24.626;2023-05-20T00:18:14;11.80;99.90
8313;DHT22;4194;43.408;24.626;2023-05-20T00:20:40;11.60;99.90
8313;DHT22;4194;43.408;24.626;2023-05-20T00:23:05;12.60;99.90
8313;DHT22;4194;43.408;24.626;2023-05-20T00:25:31;12.50;99.90
8313;DHT22;4194;43.408;24.626;2023-05-20T00:27:57;13.60;99.90
8313;DHT22;4194;43.408;24.626;2023-05-20T00:30:23;13.20;99.90
8313;DHT22;4194;43.408;24.626;2023-05-20T00:32:48;12.30;99.90
8313;DHT22;4194;43.408;24.626;2023-05-20T00:37:41;12.40;99.90
8313;DHT22;4194;43.408;24.626;2023-05-20T00:40:07;12.40;99.90
8313;DHT22;4194;43.408;24.626;2023-05-20T00:44:59;11.90;99.90
8313;DHT22;4194;43.408;24.626;2023-05-20T00:47:31;12.30;99.90
8313;DHT22;4194;43.408;24.626;2023-05-20T00:49:57;12.30;99.90
8313;DHT22;4194;43.408;24.626;2023-05-20T00:52:24;12.70;99.90
8313;DHT22;4194;43.408;24.626;2023-05-20T00:54:50;10.80;99.90
8313;DHT22;4194;43.408;24.626;2023-05-20T00:57:17;12.00;99.90
8313;DHT22;4194;43.408;24.626;2023-05-20T00:59:43;11.80;99.90
8313;DHT22;4194;43.408;24.626;2023-05-20T01:02:09;10.80;99.90
8313;DHT22;4194;43.408;24.626;2023-05-20T01:04:35;12.00;99.90
8313;DHT22;4194;43.408;24.626;2023-05-20T01:07:03;10.60;99.90
8313;DHT22;4194;43.408;24.626;2023-05-20T01:09:31;12.00;99.90
8313;DHT22;4194;43.408;24.626;2023-05-20T01:12:18;12.60;99.90
8313;DHT22;4194;43.408;24.626;2023-05-20T01:14:50;11.80;99.90
8313;DHT22;4194;43.408;24.626;2023-05-20T01:17:22;13.10;99.90
8313;DHT22;4194;43.408;24.626;2023-05-20T01:19:51;12.50;99.90
8313;DHT22;4194;43.408;24.626;2023-05-20T01:24:45;12.10;99.90
8313;DHT22;4194;43.408;24.626;2023-05-20T01:27:18;11.40;99.90
8313;DHT22;4194;43.408;24.626;2023-05-20T01:29:45;11.80;99.90
8313;DHT22;4194;43.408;24.626;2023-05-20T01:32:22;12.00;99.90
8313;DHT22;4194;43.408;24.626;2023-05-20T01:34:51;11.20;99.90
8313;DHT22;4194;43.408;24.626;2023-05-20T01:37:18;13.10;99.90
8313;DHT22;4194;43.408;24.626;2023-05-20T01:39:45;11.80;99.90
8313;DHT22;4194;43.408;24.626;2023-05-20T01:42:12;12.70;99.90
8313;DHT22;4194;43.408;24.626;2023-05-20T01:44:40;10.50;99.90
8313;DHT22;4194;43.408;24.626;2023-05-20T01:47:06;11.60;99.90
8313;DHT22;4194;43.408;24.626;2023-05-20T01:49:32;11.60;99.90
8313;DHT22;4194;43.408;24.626;2023-05-20T01:51:58;11.60;99.90
8313;DHT22;4194;43.408;24.626;2023-05-20T01:54:24;12.40;99.90
8313;DHT22;4194;43.408;24.626;2023-05-20T01:56:49;12.00;99.90
8313;DHT22;4194;43.408;24.626;2023-05-20T01:59:15;11.70;99.90
8313;DHT22;4194;43.408;24.626;2023-05-20T02:01:41;11.70;99.90
8313;DHT22;4194;43.408;24.626;2023-05-20T02:04:07;11.50;99.90
8313;DHT22;4194;43.408;24.626;2023-05-20T02:06:33;10.80;99.90
8313;DHT22;4194;43.408;24.626;2023-05-20T02:11:25;11.60;99.90
8313;DHT22;4194;43.408;24.626;2023-05-20T02:13:50;10.70;99.90
8313;DHT22;4194;43.408;24.626;2023-05-20T02:16:17;11.70;99.90
8313;DHT22;4194;43.408;24.626;2023-05-20T02:18:42;11.60;99.90
8313;DHT22;4194;43.408;24.626;2023-05-20T02:23:34;10.80;99.90
8313;DHT22;4194;43.408;24.626;2023-05-20T02:26:00;10.50;99.90
8313;DHT22;4194;43.408;24.626;2023-05-20T02:28:26;11.40;99.90
8313;DHT22;4194;43.408;24.626;2023-05-20T02:30:52;10.60;99.90
8313;DHT22;4194;43.408;24.626;2023-05-20T02:33:21;10.30;99.90
8313;DHT22;4194;43.408;24.626;2023-05-20T02:35:46;11.40;99.90
8313;DHT22;4194;43.408;24.626;2023-05-20T02:38:12;11.40;99.90
8313;DHT22;4194;43.408;24.626;2023-05-20T02:40:38;11.20;99.90
8313;DHT22;4194;43.408;24.626;2023-05-20T02:43:04;11.30;99.90
8313;DHT22;4194;43.408;24.626;2023-05-20T02:47:56;11.20;99.90
8313;DHT22;4194;43.408;24.626;2023-05-20T02:50:22;12.10;99.90
8313;DHT22;4194;43.408;24.626;2023-05-20T02:52:47;11.10;99.90
8313;DHT22;4194;43.408;24.626;2023-05-20T02:55:13;11.90;99.90
8313;DHT22;4194;43.408;24.626;2023-05-20T02:57:39;10.80;99.90
8313;DHT22;4194;43.408;24.626;2023-05-20T03:00:06;11.10;99.90
8313;DHT22;4194;43.408;24.626;2023-05-20T03:02:32;11.00;99.90
8313;DHT22;4194;43.408;24.626;2023-05-20T03:04:58;11.30;99.90
8313;DHT22;4194;43.408;24.626;2023-05-20T03:07:24;11.90;99.90
8313;DHT22;4194;43.408;24.626;2023-05-20T03:09:50;11.20;99.90
8313;DHT22;4194;43.408;24.626;2023-05-20T03:12:16;11.40;99.90
8313;DHT22;4194;43.408;24.626;2023-05-20T03:14:42;10.90;99.90
8313;DHT22;4194;43.408;24.626;2023-05-20T03:17:08;11.80;99.90
8313;DHT22;4194;43.408;24.626;2023-05-20T03:19:35;11.50;99.90
8313;DHT22;4194;43.408;24.626;2023-05-20T03:22:01;10.50;99.90
8313;DHT22;4194;43.408;24.626;2023-05-20T03:24:28;11.30;99.90
8313;DHT22;4194;43.408;24.626;2023-05-20T03:26:54;11.40;99.90
8313;DHT22;4194;43.408;24.626;2023-05-20T03:29:22;11.40;99.90
8313;DHT22;4194;43.408;24.626;2023-05-20T03:31:47;11.40;99.90
8313;DHT22;4194;43.408;24.626;2023-05-20T03:34:13;11.30;99.90
8313;DHT22;4194;43.408;24.626;2023-05-20T03:36:39;11.20;99.90
8313;DHT22;4194;43.408;24.626;2023-05-20T03:39:04;11.00;99.90
8313;DHT22;4194;43.408;24.626;2023-05-20T03:41:31;11.40;99.90
8313;DHT22;4194;43.408;24.626;2023-05-20T03:43:57;11.60;99.90
8313;DHT22;4194;43.408;24.626;2023-05-20T03:46:23;11.60;99.90
8313;DHT22;4194;43.408;24.626;2023-05-20T03:51:14;11.80;99.90
8313;DHT22;4194;43.408;24.626;2023-05-20T03:53:40;12.90;99.90
8313;DHT22;4194;43.408;24.626;2023-05-20T03:56:06;12.50;99.90
8313;DHT22;4194;43.408;24.626;2023-05-20T03:58:31;11.60;99.90
8313;DHT22;4194;43.408;24.626;2023-05-20T04:00:57;10.90;99.90
8313;DHT22;4194;43.408;24.626;2023-05-20T04:03:23;13.30;99.90
8313;DHT22;4194;43.408;24.626;2023-05-20T04:08:15;13.60;99.90
8313;DHT22;4194;43.408;24.626;2023-05-20T04:10:43;12.30;99.90
8313;DHT22;4194;43.408;24.626;2023-05-20T04:13:09;13.30;99.90
8313;DHT22;4194;43.408;24.626;2023-05-20T04:18:03;13.00;99.90
8313;DHT22;4194;43.408;24.626;2023-05-20T04:20:30;13.20;99.90
8313;DHT22;4194;43.408;24.626;2023-05-20T04:22:56;12.60;99.90
8313;DHT22;4194;43.408;24.626;2023-05-20T04:25:21;12.30;99.90
8313;DHT22;4194;43.408;24.626;2023-05-20T04:27:48;13.30;99.90
8313;DHT22;4194;43.408;24.626;2023-05-20T04:30:14;14.20;99.90
8313;DHT22;4194;43.408;24.626;2023-05-20T04:32:42;13.00;99.90
8313;DHT22;4194;43.408;24.626;2023-05-20T04:35:08;13.80;99.90
8313;DHT22;4194;43.408;24.626;2023-05-20T04:37:36;13.60;99.90
8313;DHT22;4194;43.408;24.626;2023-05-20T04:40:03;14.10;99.90
8313;DHT22;4194;43.408;24.626;2023-05-20T04:42:31;13.60;99.90
8313;DHT22;4194;43.408;24.626;2023-05-20T04:44:58;12.60;99.90
8313;DHT22;4194;43.408;24.626;2023-05-20T04:47:26;13.80;99.90
8313;DHT22;4194;43.408;24.626;2023-05-20T04:49:54;14.50;99.90
8313;DHT22;4194;43.408;24.626;2023-05-20T04:52:25;14.20;99.90
8313;DHT22;4194;43.408;24.626;2023-05-20T04:54:52;14.30;99.90
8313;DHT22;4194;43.408;24.626;2023-05-20T04:57:17;14.50;99.90
8313;DHT22;4194;43.408;24.626;2023-05-20T04:59:46;14.00;99.90
8313;DHT22;4194;43.408;24.626;2023-05-20T05:02:12;14.90;99.90
8313;DHT22;4194;43.408;24.626;2023-05-20T05:04:39;15.30;99.90
8313;DHT22;4194;43.408;24.626;2023-05-20T05:07:04;14.50;99.90
8313;DHT22;4194;43.408;24.626;2023-05-20T05:09:30;15.20;99.90
8313;DHT22;4194;43.408;24.626;2023-05-20T05:11:56;15.30;99.90
8313;DHT22;4194;43.408;24.626;2023-05-20T05:14:22;15.30;99.90
8313;DHT22;4194;43.408;24.626;2023-05-20T05:16:48;15.40;99.90
8313;DHT22;4194;43.408;24.626;2023-05-20T05:19:14;15.50;99.90
8313;DHT22;4194;43.408;24.626;2023-05-20T05:24:06;15.80;99.90
8313;DHT22;4194;43.408;24.626;2023-05-20T05:26:32;15.60;99.90
8313;DHT22;4194;43.408;24.626;2023-05-20T05:28:58;15.90;99.90
8313;DHT22;4194;43.408;24.626;2023-05-20T05:31:24;14.50;99.90
8313;DHT22;4194;43.408;24.626;2023-05-20T05:33:49;16.70;99.90
8313;DHT22;4194;43.408;24.626;2023-05-20T05:36:15;15.80;99.90
8313;DHT22;4194;43.408;24.626;2023-05-20T05:38:41;17.40;99.90
8313;DHT22;4194;43.408;24.626;2023-05-20T05:41:08;17.30;99.90
8313;DHT22;4194;43.408;24.626;2023-05-20T05:43:34;16.40;99.90
8313;DHT22;4194;43.408;24.626;2023-05-20T05:46:00;17.60;99.90
8313;DHT22;4194;43.408;24.626;2023-05-20T05:48:25;17.90;99.90
8313;DHT22;4194;43.408;24.626;2023-05-20T05:50:52;17.40;99.90
8313;DHT22;4194;43.408;24.626;2023-05-20T05:53:17;17.30;99.90
8313;DHT22;4194;43.408;24.626;2023-05-20T05:55:45;18.00;99.90
8313;DHT22;4194;43.408;24.626;2023-05-20T05:58:11;17.10;99.90
8313;DHT22;4194;43.408;24.626;2023-05-20T06:03:03;17.30;99.90
8313;DHT22;4194;43.408;24.626;2023-05-20T06:05:30;16.40;99.90
8313;DHT22;4194;43.408;24.626;2023-05-20T06:07:56;17.50;99.90
8313;DHT22;4194;43.408;24.626;2023-05-20T06:10:21;18.50;99.90
8313;DHT22;4194;43.408;24.626;2023-05-20T06:12:47;17.90;99.90
8313;DHT22;4194;43.408;24.626;2023-05-20T06:15:13;17.90;99.90
8313;DHT22;4194;43.408;24.626;2023-05-20T06:17:39;17.30;99.90
8313;DHT22;4194;43.408;24.626;2023-05-20T06:20:05;17.70;99.90
8313;DHT22;4194;43.408;24.626;2023-05-20T06:22:31;18.80;99.90
8313;DHT22;4194;43.408;24.626;2023-05-20T06:24:57;18.20;99.90
8313;DHT22;4194;43.408;24.626;2023-05-20T06:27:25;18.20;99.90
8313;DHT22;4194;43.408;24.626;2023-05-20T06:29:51;18.80;99.90
8313;DHT22;4194;43.408;24.626;2023-05-20T06:32:17;18.20;99.90
8313;DHT22;4194;43.408;24.626;2023-05-20T06:34:43;18.50;99.90
8313;DHT22;4194;43.408;24.626;2023-05-20T06:37:09;17.50;99.90
8313;DHT22;4194;43.408;24.626;2023-05-20T06:39:35;18.40;99.90
8313;DHT22;4194;43.408;24.626;2023-05-20T06:42:01;18.50;99.90
8313;DHT22;4194;43.408;24.626;2023-05-20T06:44:27;19.10;99.90
8313;DHT22;4194;43.408;24.626;2023-05-20T06:46:53;18.70;99.90
8313;DHT22;4194;43.408;24.626;2023-05-20T06:49:19;19.00;99.90
8313;DHT22;4194;43.408;24.626;2023-05-20T06:51:44;18.60;99.90
8313;DHT22;4194;43.408;24.626;2023-05-20T06:54:10;19.30;99.90
8313;DHT22;4194;43.408;24.626;2023-05-20T06:56:36;19.00;99.90
8313;DHT22;4194;43.408;24.626;2023-05-20T06:59:01;20.20;99.90
8313;DHT22;4194;43.408;24.626;2023-05-20T07:01:27;19.50;99.90
8313;DHT22;4194;43.408;24.626;2023-05-20T07:03:53;20.80;99.90
8313;DHT22;4194;43.408;24.626;2023-05-20T07:06:19;19.20;99.90
8313;DHT22;4194;43.408;24.626;2023-05-20T07:08:44;19.20;99.90
8313;DHT22;4194;43.408;24.626;2023-05-20T07:11:10;20.10;99.90
8313;DHT22;4194;43.408;24.626;2023-05-20T07:13:36;20.00;99.90
8313;DHT22;4194;43.408;24.626;2023-05-20T07:16:02;19.80;99.90
8313;DHT22;4194;43.408;24.626;2023-05-20T07:18:28;19.00;99.90
8313;DHT22;4194;43.408;24.626;2023-05-20T07:20:54;19.40;99.90
8313;DHT22;4194;43.408;24.626;2023-05-20T07:23:22;20.10;99.90
8313;DHT22;4194;43.408;24.626;2023-05-20T07:25:47;20.70;99.90
8313;DHT22;4194;43.408;24.626;2023-05-20T07:28:15;20.10;99.90
8313;DHT22;4194;43.408;24.626;2023-05-20T07:30:41;19.60;99.90
8313;DHT22;4194;43.408;24.626;2023-05-20T07:33:06;20.30;99.90
8313;DHT22;4194;43.408;24.626;2023-05-20T07:37:58;21.30;99.90
8313;DHT22;4194;43.408;24.626;2023-05-20T07:40:25;20.20;99.90
8313;DHT22;4194;43.408;24.626;2023-05-20T07:42:51;20.20;99.90
8313;DHT22;4194;43.408;24.626;2023-05-20T07:45:17;20.20;99.90
8313;DHT22;4194;43.408;24.626;2023-05-20T07:47:42;20.70;99.90
8313;DHT22;4194;43.408;24.626;2023-05-20T07:50:08;19.70;99.90
8313;DHT22;4194;43.408;24.626;2023-05-20T07:52:34;21.10;99.90
8313;DHT22;4194;43.408;24.626;2023-05-20T07:55:00;21.80;99.90
8313;DHT22;4194;43.408;24.626;2023-05-20T07:57:26;21.10;99.90
8313;DHT22;4194;43.408;24.626;2023-05-20T07:59:52;22.20;99.90
8313;DHT22;4194;43.408;24.626;2023-05-20T08:02:17;21.60;99.90
8313;DHT22;4194;43.408;24.626;2023-05-20T08:04:43;21.90;99.90
8313;DHT22;4194;43.408;24.626;2023-05-20T08:07:08;21.40;99.80
8313;DHT22;4194;43.408;24.626;2023-05-20T08:09:34;22.30;98.70
8313;DHT22;4194;43.408;24.626;2023-05-20T08:12:00;21.90;98.80
8313;DHT22;4194;43.408;24.626;2023-05-20T08:14:26;21.10;99.00
8313;DHT22;4194;43.408;24.626;2023-05-20T08:16:52;21.60;98.90
8313;DHT22;4194;43.408;24.626;2023-05-20T08:19:18;22.70;99.60
8313;DHT22;4194;43.408;24.626;2023-05-20T08:21:43;22.80;99.00
8313;DHT22;4194;43.408;24.626;2023-05-20T08:24:09;22.50;98.50
8313;DHT22;4194;43.408;24.626;2023-05-20T08:26:35;22.30;97.00
8313;DHT22;4194;43.408;24.626;2023-05-20T08:29:01;22.10;97.20
8313;DHT22;4194;43.408;24.626;2023-05-20T08:31:26;22.70;96.00
8313;DHT22;4194;43.408;24.626;2023-05-20T08:33:52;24.10;97.40
8313;DHT22;4194;43.408;24.626;2023-05-20T08:36:18;24.10;94.60
8313;DHT22;4194;43.408;24.626;2023-05-20T08:38:44;23.90;92.90
8313;DHT22;4194;43.408;24.626;2023-05-20T08:41:09;24.30;93.60
8313;DHT22;4194;43.408;24.626;2023-05-20T08:43:40;24.40;90.90
8313;DHT22;4194;43.408;24.626;2023-05-20T08:46:06;24.60;90.00
8313;DHT22;4194;43.408;24.626;2023-05-20T08:48:32;24.60;88.60
8313;DHT22;4194;43.408;24.626;2023-05-20T08:50:59;24.80;84.90
8313;DHT22;4194;43.408;24.626;2023-05-20T08:53:27;24.90;84.80
8313;DHT22;4194;43.408;24.626;2023-05-20T08:55:55;24.90;83.40
8313;DHT22;4194;43.408;24.626;2023-05-20T08:58:22;25.00;83.50
8313;DHT22;4194;43.408;24.626;2023-05-20T09:00:50;24.80;83.00
8313;DHT22;4194;43.408;24.626;2023-05-20T09:03:17;24.10;84.30
8313;DHT22;4194;43.408;24.626;2023-05-20T09:05:45;24.80;85.00
8313;DHT22;4194;43.408;24.626;2023-05-20T09:08:11;24.80;83.50
8313;DHT22;4194;43.408;24.626;2023-05-20T09:10:38;25.00;81.00
8313;DHT22;4194;43.408;24.626;2023-05-20T09:13:05;25.00;81.90
8313;DHT22;4194;43.408;24.626;2023-05-20T09:15:31;24.40;80.70
8313;DHT22;4194;43.408;24.626;2023-05-20T09:18:01;24.10;83.80
8313;DHT22;4194;43.408;24.626;2023-05-20T09:20:28;23.80;85.20
8313;DHT22;4194;43.408;24.626;2023-05-20T09:22:58;24.40;83.90
8313;DHT22;4194;43.408;24.626;2023-05-20T09:25:24;23.80;83.40
8313;DHT22;4194;43.408;24.626;2023-05-20T09:27:50;24.00;84.30
8313;DHT22;4194;43.408;24.626;2023-05-20T09:30:20;23.60;84.70
8313;DHT22;4194;43.408;24.626;2023-05-20T09:32:52;23.50;86.60
8313;DHT22;4194;43.408;24.626;2023-05-20T09:35:18;23.50;86.80
8313;DHT22;4194;43.408;24.626;2023-05-20T09:37:45;23.00;87.90
8313;DHT22;4194;43.408;24.626;2023-05-20T09:40:13;21.70;88.10
8313;DHT22;4194;43.408;24.626;2023-05-20T09:42:53;22.30;90.20
8313;DHT22;4194;43.408;24.626;2023-05-20T09:45:21;22.80;91.80
8313;DHT22;4194;43.408;24.626;2023-05-20T09:47:52;21.70;91.30
8313;DHT22;4194;43.408;24.626;2023-05-20T09:50:19;22.40;91.60
8313;DHT22;4194;43.408;24.626;2023-05-20T09:52:49;23.00;91.80
8313;DHT22;4194;43.408;24.626;2023-05-20T09:55:19;23.30;92.20
8313;DHT22;4194;43.408;24.626;2023-05-20T09:57:46;21.90;91.80
8313;DHT22;4194;43.408;24.626;2023-05-20T10:00:13;22.60;92.80
8313;DHT22;4194;43.408;24.626;2023-05-20T10:02:51;21.80;92.10
8313;DHT22;4194;43.408;24.626;2023-05-20T10:21:02;21.70;93.00
8313;DHT22;4194;43.408;24.626;2023-05-20T10:23:30;21.90;93.00
8313;DHT22;4194;43.408;24.626;2023-05-20T10:25:57;21.60;92.60
8313;DHT22;4194;43.408;24.626;2023-05-20T10:28:34;22.10;93.60
8313;DHT22;4194;43.408;24.626;2023-05-20T10:31:22;22.00;92.70
8313;DHT22;4194;43.408;24.626;2023-05-20T10:33:51;21.60;91.80
8313;DHT22;4194;43.408;24.626;2023-05-20T10:36:28;22.60;92.10
8313;DHT22;4194;43.408;24.626;2023-05-20T10:38:58;22.30;92.20
8313;DHT22;4194;43.408;24.626;2023-05-20T10:41:25;22.50;91.30
8313;DHT22;4194;43.408;24.626;2023-05-20T10:44:01;22.90;90.20
8313;DHT22;4194;43.408;24.626;2023-05-20T10:46:28;23.20;89.30
8313;DHT22;4194;43.408;24.626;2023-05-20T10:48:54;23.50;88.00
8313;DHT22;4194;43.408;24.626;2023-05-20T10:51:22;23.10;83.30
8313;DHT22;4194;43.408;24.626;2023-05-20T10:53:52;24.10;84.20
8313;DHT22;4194;43.408;24.626;2023-05-20T10:56:19;25.60;79.70
8313;DHT22;4194;43.408;24.626;2023-05-20T10:58:53;25.80;79.20
8313;DHT22;4194;43.408;24.626;2023-05-20T11:01:24;25.60;76.60
8313;DHT22;4194;43.408;24.626;2023-05-20T11:03:51;25.40;74.80
8313;DHT22;4194;43.408;24.626;2023-05-20T11:06:17;25.80;73.60
8313;DHT22;4194;43.408;24.626;2023-05-20T11:08:43;26.00;73.80
8313;DHT22;4194;43.408;24.626;2023-05-20T11:11:10;27.30;74.50
8313;DHT22;4194;43.408;24.626;2023-05-20T11:13:37;25.70;73.50
8313;DHT22;4194;43.408;24.626;2023-05-20T11:16:03;26.10;72.20
8313;DHT22;4194;43.408;24.626;2023-05-20T11:18:29;26.70;73.30
8313;DHT22;4194;43.408;24.626;2023-05-20T11:20:57;25.50;71.40
8313;DHT22;4194;43.408;24.626;2023-05-20T11:23:22;27.50;75.00
8313;DHT22;4194;43.408;24.626;2023-05-20T11:25:51;26.40;71.50
8313;DHT22;4194;43.408;24.626;2023-05-20T11:28:18;25.70;72.10
8313;DHT22;4194;43.408;24.626;2023-05-20T11:30:44;26.00;70.00
8313;DHT22;4194;43.408;24.626;2023-05-20T11:33:14;25.40;67.10
8313;DHT22;4194;43.408;24.626;2023-05-20T11:35:59;26.20;67.30
8313;DHT22;4194;43.408;24.626;2023-05-20T11:38:26;27.20;67.70
8313;DHT22;4194;43.408;24.626;2023-05-20T11:40:53;26.30;66.80
8313;DHT22;4194;43.408;24.626;2023-05-20T11:43:20;26.80;67.20
8313;DHT22;4194;43.408;24.626;2023-05-20T11:45:51;28.10;66.30
8313;DHT22;4194;43.408;24.626;2023-05-20T11:48:18;28.90;63.90
8313;DHT22;4194;43.408;24.626;2023-05-20T11:50:45;29.20;61.90
8313;DHT22;4194;43.408;24.626;2023-05-20T11:53:19;30.10;62.30
8313;DHT22;4194;43.408;24.626;2023-05-20T11:55:58;30.80;61.20
8313;DHT22;4194;43.408;24.626;2023-05-20T12:00:50;30.00;55.80
8313;DHT22;4194;43.408;24.626;2023-05-20T12:03:16;30.40;57.60
8313;DHT22;4194;43.408;24.626;2023-05-20T12:05:42;31.30;56.40
8313;DHT22;4194;43.408;24.626;2023-05-20T12:08:08;31.70;53.70
8313;DHT22;4194;43.408;24.626;2023-05-20T12:10:34;31.40;55.70
8313;DHT22;4194;43.408;24.626;2023-05-20T12:13:02;31.90;54.00
8313;DHT22;4194;43.408;24.626;2023-05-20T12:15:28;31.80;54.50
8313;DHT22;4194;43.408;24.626;2023-05-20T12:17:55;32.90;53.20
8313;DHT22;4194;43.408;24.626;2023-05-20T12:20:23;32.80;53.00
8313;DHT22;4194;43.408;24.626;2023-05-20T12:22:49;33.40;52.30
8313;DHT22;4194;43.408;24.626;2023-05-20T12:25:17;32.00;52.00
8313;DHT22;4194;43.408;24.626;2023-05-20T12:27:44;33.60;52.20
8313;DHT22;4194;43.408;24.626;2023-05-20T12:30:15;33.70;50.60
8313;DHT22;4194;43.408;24.626;2023-05-20T12:32:42;34.10;49.20
8313;DHT22;4194;43.408;24.626;2023-05-20T12:35:09;34.30;48.60
8313;DHT22;4194;43.408;24.626;2023-05-20T12:37:36;34.80;49.60
8313;DHT22;4194;43.408;24.626;2023-05-20T12:40:02;33.20;47.30
8313;DHT22;4194;43.408;24.626;2023-05-20T12:42:37;34.80;47.20
8313;DHT22;4194;43.408;24.626;2023-05-20T12:45:04;34.90;47.30
8313;DHT22;4194;43.408;24.626;2023-05-20T12:47:31;34.20;45.00
8313;DHT22;4194;43.408;24.626;2023-05-20T12:49:56;35.00;45.90
8313;DHT22;4194;43.408;24.626;2023-05-20T12:52:22;34.60;46.60
8313;DHT22;4194;43.408;24.626;2023-05-20T12:54:48;34.60;46.50
8313;DHT22;4194;43.408;24.626;2023-05-20T12:57:14;34.80;46.50
8313;DHT22;4194;43.408;24.626;2023-05-20T12:59:39;36.50;45.50
8313;DHT22;4194;43.408;24.626;2023-05-20T13:02:06;36.50;46.10
8313;DHT22;4194;43.408;24.626;2023-05-20T13:04:31;36.60;44.20
8313;DHT22;4194;43.408;24.626;2023-05-20T13:06:57;38.10;43.50
8313;DHT22;4194;43.408;24.626;2023-05-20T13:09:23;37.30;43.10
8313;DHT22;4194;43.408;24.626;2023-05-20T13:11:49;37.10;42.90
8313;DHT22;4194;43.408;24.626;2023-05-20T13:14:15;35.30;42.80
8313;DHT22;4194;43.408;24.626;2023-05-20T13:16:40;36.10;43.60
8313;DHT22;4194;43.408;24.626;2023-05-20T13:19:06;36.80;42.60
8313;DHT22;4194;43.408;24.626;2023-05-20T13:21:32;35.20;42.20
8313;DHT22;4194;43.408;24.626;2023-05-20T13:23:58;36.00;41.40
8313;DHT22;4194;43.408;24.626;2023-05-20T13:26:25;37.60;42.10
8313;DHT22;4194;43.408;24.626;2023-05-20T13:28:51;37.80;41.20
8313;DHT22;4194;43.408;24.626;2023-05-20T13:31:17;37.40;41.60
8313;DHT22;4194;43.408;24.626;2023-05-20T13:33:43;38.10;42.10
8313;DHT22;4194;43.408;24.626;2023-05-20T13:36:08;37.20;41.70
8313;DHT22;4194;43.408;24.626;2023-05-20T13:38:35;37.90;40.50
8313;DHT22;4194;43.408;24.626;2023-05-20T13:41:00;38.00;40.50
8313;DHT22;4194;43.408;24.626;2023-05-20T13:43:26;38.80;40.10
8313;DHT22;4194;43.408;24.626;2023-05-20T13:45:53;39.10;39.50
8313;DHT22;4194;43.408;24.626;2023-05-20T13:48:19;39.90;39.70
8313;DHT22;4194;43.408;24.626;2023-05-20T13:50:45;39.70;40.30
8313;DHT22;4194;43.408;24.626;2023-05-20T13:53:10;40.70;40.10
8313;DHT22;4194;43.408;24.626;2023-05-20T13:55:38;39.40;37.80
8313;DHT22;4194;43.408;24.626;2023-05-20T13:58:04;39.10;40.20
8313;DHT22;4194;43.408;24.626;2023-05-20T14:00:37;39.90;39.10
8313;DHT22;4194;43.408;24.626;2023-05-20T14:03:03;39.30;38.00
8313;DHT22;4194;43.408;24.626;2023-05-20T14:05:33;39.80;39.10
8313;DHT22;4194;43.408;24.626;2023-05-20T14:08:00;39.80;39.90
8313;DHT22;4194;43.408;24.626;2023-05-20T14:10:26;40.30;38.60
8313;DHT22;4194;43.408;24.626;2023-05-20T14:12:53;40.20;39.30
8313;DHT22;4194;43.408;24.626;2023-05-20T14:15:19;40.60;39.70
8313;DHT22;4194;43.408;24.626;2023-05-20T14:17:46;40.70;39.10
8313;DHT22;4194;43.408;24.626;2023-05-20T14:20:12;41.00;38.40
8313;DHT22;4194;43.408;24.626;2023-05-20T14:25:04;40.10;39.10
8313;DHT22;4194;43.408;24.626;2023-05-20T14:27:30;40.80;39.00
8313;DHT22;4194;43.408;24.626;2023-05-20T14:29:56;40.90;37.60
8313;DHT22;4194;43.408;24.626;2023-05-20T14:32:21;40.30;38.40
8313;DHT22;4194;43.408;24.626;2023-05-20T14:34:47;41.10;39.40
8313;DHT22;4194;43.408;24.626;2023-05-20T14:37:13;40.70;40.00
8313;DHT22;4194;43.408;24.626;2023-05-20T14:39:40;41.00;37.60
8313;DHT22;4194;43.408;24.626;2023-05-20T14:42:06;40.10;37.70
8313;DHT22;4194;43.408;24.626;2023-05-20T14:44:32;40.10;38.50
8313;DHT22;4194;43.408;24.626;2023-05-20T14:46:58;39.70;39.00
8313;DHT22;4194;43.408;24.626;2023-05-20T14:49:24;40.00;38.80
8313;DHT22;4194;43.408;24.626;2023-05-20T14:51:49;39.20;38.90
8313;DHT22;4194;43.408;24.626;2023-05-20T14:54:15;38.30;39.70
8313;DHT22;4194;43.408;24.626;2023-05-20T14:56:43;38.30;42.10
8313;DHT22;4194;43.408;24.626;2023-05-20T14:59:09;36.20;42.10
8313;DHT22;4194;43.408;24.626;2023-05-20T15:01:35;35.70;42.00
8313;DHT22;4194;43.408;24.626;2023-05-20T15:04:01;37.60;42.90
8313;DHT22;4194;43.408;24.626;2023-05-20T15:06:28;36.80;44.40
8313;DHT22;4194;43.408;24.626;2023-05-20T15:08:56;34.80;43.90
8313;DHT22;4194;43.408;24.626;2023-05-20T15:11:22;34.60;45.40
8313;DHT22;4194;43.408;24.626;2023-05-20T15:13:47;33.70;47.10
8313;DHT22;4194;43.408;24.626;2023-05-20T15:16:15;32.60;48.00
8313;DHT22;4194;43.408;24.626;2023-05-20T15:18:44;33.70;47.60
8313;DHT22;4194;43.408;24.626;2023-05-20T15:21:10;34.60;46.60
8313;DHT22;4194;43.408;24.626;2023-05-20T15:23:36;33.50;46.40
8313;DHT22;4194;43.408;24.626;2023-05-20T15:26:01;33.30;48.10
8313;DHT22;4194;43.408;24.626;2023-05-20T15:28:27;34.70;48.20
8313;DHT22;4194;43.408;24.626;2023-05-20T15:30:54;34.90;46.30
8313;DHT22;4194;43.408;24.626;2023-05-20T15:33:20;34.80;46.20
8313;DHT22;4194;43.408;24.626;2023-05-20T15:35:46;32.20;47.60
8313;DHT22;4194;43.408;24.626;2023-05-20T15:38:13;30.50;49.60
8313;DHT22;4194;43.408;24.626;2023-05-20T15:40:39;30.60;54.00
8313;DHT22;4194;43.408;24.626;2023-05-20T15:43:05;28.40;56.40
8313;DHT22;4194;43.408;24.626;2023-05-20T15:45:31;28.20;60.60
8313;DHT22;4194;43.408;24.626;2023-05-20T15:47:57;26.30;61.00
8313;DHT22;4194;43.408;24.626;2023-05-20T15:50:23;25.70;63.80
8313;DHT22;4194;43.408;24.626;2023-05-20T15:52:51;24.90;65.60
8313;DHT22;4194;43.408;24.626;2023-05-20T15:55:17;25.50;68.80
8313;DHT22;4194;43.408;24.626;2023-05-20T15:57:43;23.20;66.30
8313;DHT22;4194;43.408;24.626;2023-05-20T16:00:10;23.30;69.90
8313;DHT22;4194;43.408;24.626;2023-05-20T16:05:03;23.40;73.70
8313;DHT22;4194;43.408;24.626;2023-05-20T16:07:29;22.10;74.60
8313;DHT22;4194;43.408;24.626;2023-05-20T16:09:55;23.30;77.10
8313;DHT22;4194;43.408;24.626;2023-05-20T16:12:22;23.00;79.00
8313;DHT22;4194;43.408;24.626;2023-05-20T16:14:47;21.60;80.00
8313;DHT22;4194;43.408;24.626;2023-05-20T16:17:13;22.30;81.80
8313;DHT22;4194;43.408;24.626;2023-05-20T16:19:41;21.50;83.00
8313;DHT22;4194;43.408;24.626;2023-05-20T16:22:07;21.10;85.70
8313;DHT22;4194;43.408;24.626;2023-05-20T16:24:34;20.80;86.70
8313;DHT22;4194;43.408;24.626;2023-05-20T16:27:00;20.60;89.00
8313;DHT22;4194;43.408;24.626;2023-05-20T16:29:26;20.60;91.40
8313;DHT22;4194;43.408;24.626;2023-05-20T16:31:51;19.70;91.00
8313;DHT22;4194;43.408;24.626;2023-05-20T16:34:17;20.10;92.30
8313;DHT22;4194;43.408;24.626;2023-05-20T16:36:43;20.10;94.00